sensor_id;sensor_type;location;lat;lon;timestamp;P1;durP1;ratioP1;P2;durP2;ratioP2
2824;SDS011;1420;51.324;12.344;2022-10-26T00:00:45;36.22;;;32.97;;
2824;SDS011;1420;51.324;12.344;2022-10-26T00:03:13;46.90;;;43.12;;
2824;SDS011;1420;51.324;12.344;2022-10-26T00:05:41;56.77;;;52.30;;
2824;SDS011;1420;51.324;12.344;2022-10-26T00:08:08;36.43;;;32.95;;
2824;SDS011;1420;51.324;12.344;2022-10-26T00:10:36;29.32;;;26.28;;
2824;SDS011;1420;51.324;12.344;2022-10-26T00:13:02;35.43;;;32.17;;
2824;SDS011;1420;51.324;12.344;2022-10-26T00:15:30;43.67;;;40.13;;
2824;SDS011;1420;51.324;12.344;2022-10-26T00:17:57;55.17;;;50.73;;
2824;SDS011;1420;51.324;12.344;2022-10-26T00:20:24;53.10;;;48.07;;
2824;SDS011;1420;51.324;12.344;2022-10-26T00:22:51;59.92;;;55.35;;
2824;SDS011;1420;51.324;12.344;2022-10-26T00:25:20;29.48;;;26.88;;
2824;SDS011;1420;51.324;12.344;2022-10-26T00:27:48;43.87;;;40.15;;
2824;SDS011;1420;51.324;12.344;2022-10-26T00:30:15;43.57;;;39.95;;
2824;SDS011;1420;51.324;12.344;2022-10-26T00:32:42;41.92;;;38.25;;
2824;SDS011;1420;51.324;12.344;2022-10-26T00:35:09;37.45;;;33.80;;
2824;SDS011;1420;51.324;12.344;2022-10-26T00:37:37;46.48;;;42.85;;
2824;SDS011;1420;51.324;12.344;2022-10-26T00:40:06;44.78;;;40.80;;
2824;SDS011;1420;51.324;12.344;2022-10-26T00:42:33;37.47;;;34.32;;
2824;SDS011;1420;51.324;12.344;2022-10-26T00:45:08;56.82;;;51.82;;
2824;SDS011;1420;51.324;12.344;2022-10-26T00:47:47;31.87;;;28.63;;
2824;SDS011;1420;51.324;12.344;2022-10-26T00:50:16;49.12;;;45.32;;
2824;SDS011;1420;51.324;12.344;2022-10-26T00:52:42;43.52;;;39.67;;
2824;SDS011;1420;51.324;12.344;2022-10-26T00:55:10;60.82;;;54.95;;
2824;SDS011;1420;51.324;12.344;2022-10-26T00:57:37;27.07;;;23.12;;
2824;SDS011;1420;51.324;12.344;2022-10-26T01:00:05;39.03;;;35.48;;
2824;SDS011;1420;51.324;12.344;2022-10-26T01:02:33;35.75;;;32.10;;
2824;SDS011;1420;51.324;12.344;2022-10-26T01:05:01;39.37;;;35.18;;
2824;SDS011;1420;51.324;12.344;2022-10-26T01:07:28;47.60;;;40.95;;
2824;SDS011;1420;51.324;12.344;2022-10-26T01:09:55;35.97;;;32.25;;
2824;SDS011;1420;51.324;12.344;2022-10-26T01:12:23;51.33;;;47.48;;
2824;SDS011;1420;51.324;12.344;2022-10-26T01:14:51;33.65;;;29.48;;
2824;SDS011;1420;51.324;12.344;2022-10-26T01:20:18;31.95;;;28.83;;
2824;SDS011;1420;51.324;12.344;2022-10-26T01:22:59;27.07;;;21.50;;
2824;SDS011;1420;51.324;12.344;2022-10-26T01:25:30;29.60;;;25.75;;
2824;SDS011;1420;51.324;12.344;2022-10-26T01:27:55;26.68;;;22.93;;
2824;SDS011;1420;51.324;12.344;2022-10-26T01:30:26;25.30;;;20.43;;
2824;SDS011;1420;51.324;12.344;2022-10-26T01:36:01;30.02;;;27.13;;
2824;SDS011;1420;51.324;12.344;2022-10-26T01:38:39;21.93;;;15.17;;
2824;SDS011;1420;51.324;12.344;2022-10-26T01:41:09;30.28;;;26.98;;
2824;SDS011;1420;51.324;12.344;2022-10-26T01:43:35;26.75;;;24.05;;
2824;SDS011;1420;51.324;12.344;2022-10-26T01:46:02;24.27;;;21.87;;
2824;SDS011;1420;51.324;12.344;2022-10-26T01:48:30;23.93;;;20.60;;
2824;SDS011;1420;51.324;12.344;2022-10-26T01:50:57;47.37;;;43.08;;
2824;SDS011;1420;51.324;12.344;2022-10-26T01:53:24;43.47;;;39.92;;
2824;SDS011;1420;51.324;12.344;2022-10-26T01:55:52;25.13;;;22.45;;
2824;SDS011;1420;51.324;12.344;2022-10-26T01:58:22;33.43;;;30.30;;
2824;SDS011;1420;51.324;12.344;2022-10-26T02:00:53;26.28;;;23.22;;
2824;SDS011;1420;51.324;12.344;2022-10-26T02:03:21;26.07;;;21.93;;
2824;SDS011;1420;51.324;12.344;2022-10-26T02:05:55;23.50;;;18.67;;
2824;SDS011;1420;51.324;12.344;2022-10-26T02:11:06;20.68;;;14.95;;
2824;SDS011;1420;51.324;12.344;2022-10-26T02:13:46;18.47;;;11.45;;
2824;SDS011;1420;51.324;12.344;2022-10-26T02:16:17;30.62;;;22.33;;
2824;SDS011;1420;51.324;12.344;2022-10-26T02:18:47;35.92;;;31.12;;
2824;SDS011;1420;51.324;12.344;2022-10-26T02:21:15;25.43;;;21.18;;
2824;SDS011;1420;51.324;12.344;2022-10-26T02:23:41;30.83;;;28.03;;
2824;SDS011;1420;51.324;12.344;2022-10-26T02:26:09;24.18;;;20.88;;
2824;SDS011;1420;51.324;12.344;2022-10-26T02:28:37;23.88;;;20.57;;
2824;SDS011;1420;51.324;12.344;2022-10-26T02:31:06;44.13;;;39.90;;
2824;SDS011;1420;51.324;12.344;2022-10-26T02:33:32;33.13;;;30.15;;
2824;SDS011;1420;51.324;12.344;2022-10-26T02:35:59;21.92;;;16.18;;
2824;SDS011;1420;51.324;12.344;2022-10-26T02:38:25;37.42;;;33.97;;
2824;SDS011;1420;51.324;12.344;2022-10-26T02:40:52;22.02;;;13.88;;
2824;SDS011;1420;51.324;12.344;2022-10-26T02:43:20;32.17;;;29.47;;
2824;SDS011;1420;51.324;12.344;2022-10-26T02:45:51;35.73;;;32.30;;
2824;SDS011;1420;51.324;12.344;2022-10-26T02:48:18;42.62;;;38.78;;
2824;SDS011;1420;51.324;12.344;2022-10-26T02:50:52;38.02;;;34.80;;
2824;SDS011;1420;51.324;12.344;2022-10-26T02:53:17;30.68;;;27.62;;
2824;SDS011;1420;51.324;12.344;2022-10-26T02:55:45;26.27;;;23.70;;
2824;SDS011;1420;51.324;12.344;2022-10-26T02:58:11;20.52;;;17.55;;
2824;SDS011;1420;51.324;12.344;2022-10-26T03:00:39;43.60;;;39.62;;
2824;SDS011;1420;51.324;12.344;2022-10-26T03:03:06;23.55;;;20.83;;
2824;SDS011;1420;51.324;12.344;2022-10-26T03:05:33;22.08;;;14.70;;
2824;SDS011;1420;51.324;12.344;2022-10-26T03:08:03;23.28;;;20.85;;
2824;SDS011;1420;51.324;12.344;2022-10-26T03:10:30;24.72;;;19.33;;
2824;SDS011;1420;51.324;12.344;2022-10-26T03:12:57;25.50;;;21.65;;
2824;SDS011;1420;51.324;12.344;2022-10-26T03:15:24;29.27;;;23.02;;
2824;SDS011;1420;51.324;12.344;2022-10-26T03:17:51;25.28;;;22.63;;
2824;SDS011;1420;51.324;12.344;2022-10-26T03:20:19;21.98;;;15.97;;
2824;SDS011;1420;51.324;12.344;2022-10-26T03:22:47;29.35;;;26.23;;
2824;SDS011;1420;51.324;12.344;2022-10-26T03:25:15;55.62;;;51.85;;
2824;SDS011;1420;51.324;12.344;2022-10-26T03:27:42;41.70;;;38.18;;
2824;SDS011;1420;51.324;12.344;2022-10-26T03:30:09;36.85;;;33.62;;
2824;SDS011;1420;51.324;12.344;2022-10-26T03:32:37;21.40;;;9.17;;
2824;SDS011;1420;51.324;12.344;2022-10-26T03:35:04;29.18;;;23.15;;
2824;SDS011;1420;51.324;12.344;2022-10-26T03:37:32;22.63;;;17.78;;
2824;SDS011;1420;51.324;12.344;2022-10-26T03:39:59;19.07;;;14.08;;
2824;SDS011;1420;51.324;12.344;2022-10-26T03:42:26;28.95;;;25.73;;
2824;SDS011;1420;51.324;12.344;2022-10-26T03:44:53;31.27;;;28.18;;
2824;SDS011;1420;51.324;12.344;2022-10-26T03:47:21;22.27;;;16.65;;
2824;SDS011;1420;51.324;12.344;2022-10-26T03:49:48;32.18;;;27.48;;
2824;SDS011;1420;51.324;12.344;2022-10-26T03:52:16;28.50;;;25.97;;
2824;SDS011;1420;51.324;12.344;2022-10-26T03:54:43;38.28;;;34.70;;
2824;SDS011;1420;51.324;12.344;2022-10-26T03:57:10;28.13;;;24.10;;
2824;SDS011;1420;51.324;12.344;2022-10-26T03:59:37;27.90;;;22.65;;
2824;SDS011;1420;51.324;12.344;2022-10-26T04:02:05;23.85;;;15.85;;
2824;SDS011;1420;51.324;12.344;2022-10-26T04:04:33;27.82;;;21.70;;
2824;SDS011;1420;51.324;12.344;2022-10-26T04:07:01;43.97;;;35.95;;
2824;SDS011;1420;51.324;12.344;2022-10-26T04:09:29;24.20;;;20.23;;
2824;SDS011;1420;51.324;12.344;2022-10-26T04:11:56;41.43;;;37.78;;
2824;SDS011;1420;51.324;12.344;2022-10-26T04:14:24;32.42;;;28.38;;
2824;SDS011;1420;51.324;12.344;2022-10-26T04:16:51;44.55;;;40.78;;
2824;SDS011;1420;51.324;12.344;2022-10-26T04:19:18;27.75;;;17.67;;
2824;SDS011;1420;51.324;12.344;2022-10-26T04:21:45;38.10;;;34.70;;
2824;SDS011;1420;51.324;12.344;2022-10-26T04:24:13;29.13;;;25.68;;
2824;SDS011;1420;51.324;12.344;2022-10-26T04:26:41;36.75;;;33.27;;
2824;SDS011;1420;51.324;12.344;2022-10-26T04:29:09;26.32;;;20.03;;
2824;SDS011;1420;51.324;12.344;2022-10-26T04:31:36;19.35;;;14.23;;
2824;SDS011;1420;51.324;12.344;2022-10-26T04:34:04;19.72;;;15.38;;
2824;SDS011;1420;51.324;12.344;2022-10-26T04:36:31;34.50;;;31.48;;
2824;SDS011;1420;51.324;12.344;2022-10-26T04:38:59;28.53;;;24.57;;
2824;SDS011;1420;51.324;12.344;2022-10-26T04:41:26;30.50;;;24.00;;
2824;SDS011;1420;51.324;12.344;2022-10-26T04:43:54;43.25;;;39.47;;
2824;SDS011;1420;51.324;12.344;2022-10-26T04:46:22;35.07;;;29.52;;
2824;SDS011;1420;51.324;12.344;2022-10-26T04:48:50;30.43;;;27.47;;
2824;SDS011;1420;51.324;12.344;2022-10-26T04:51:18;37.78;;;32.10;;
2824;SDS011;1420;51.324;12.344;2022-10-26T04:53:45;24.38;;;16.03;;
2824;SDS011;1420;51.324;12.344;2022-10-26T04:56:12;28.70;;;24.90;;
2824;SDS011;1420;51.324;12.344;2022-10-26T04:58:39;25.50;;;16.45;;
2824;SDS011;1420;51.324;12.344;2022-10-26T05:01:07;36.75;;;33.52;;
2824;SDS011;1420;51.324;12.344;2022-10-26T05:03:34;19.93;;;17.92;;
2824;SDS011;1420;51.324;12.344;2022-10-26T05:06:03;20.30;;;11.22;;
2824;SDS011;1420;51.324;12.344;2022-10-26T05:08:31;25.03;;;17.73;;
2824;SDS011;1420;51.324;12.344;2022-10-26T05:10:58;26.12;;;20.73;;
2824;SDS011;1420;51.324;12.344;2022-10-26T05:13:25;23.30;;;16.70;;
2824;SDS011;1420;51.324;12.344;2022-10-26T05:15:52;43.67;;;39.72;;
2824;SDS011;1420;51.324;12.344;2022-10-26T05:18:20;29.43;;;26.67;;
2824;SDS011;1420;51.324;12.344;2022-10-26T05:20:47;36.43;;;32.77;;
2824;SDS011;1420;51.324;12.344;2022-10-26T05:23:14;21.60;;;12.13;;
2824;SDS011;1420;51.324;12.344;2022-10-26T05:25:41;27.47;;;24.77;;
2824;SDS011;1420;51.324;12.344;2022-10-26T05:28:09;29.65;;;26.38;;
2824;SDS011;1420;51.324;12.344;2022-10-26T05:30:36;34.13;;;30.65;;
2824;SDS011;1420;51.324;12.344;2022-10-26T05:33:04;30.73;;;12.67;;
2824;SDS011;1420;51.324;12.344;2022-10-26T05:35:32;32.97;;;29.52;;
2824;SDS011;1420;51.324;12.344;2022-10-26T05:38:05;21.43;;;17.65;;
2824;SDS011;1420;51.324;12.344;2022-10-26T05:40:27;23.98;;;21.33;;
2824;SDS011;1420;51.324;12.344;2022-10-26T05:42:58;22.92;;;13.63;;
2824;SDS011;1420;51.324;12.344;2022-10-26T05:45:21;18.72;;;16.60;;
2824;SDS011;1420;51.324;12.344;2022-10-26T05:47:48;26.10;;;22.50;;
2824;SDS011;1420;51.324;12.344;2022-10-26T05:50:16;25.02;;;22.23;;
2824;SDS011;1420;51.324;12.344;2022-10-26T05:52:45;28.25;;;25.53;;
2824;SDS011;1420;51.324;12.344;2022-10-26T05:55:13;36.08;;;32.97;;
2824;SDS011;1420;51.324;12.344;2022-10-26T05:57:39;22.55;;;17.95;;
2824;SDS011;1420;51.324;12.344;2022-10-26T06:00:07;27.28;;;24.85;;
2824;SDS011;1420;51.324;12.344;2022-10-26T06:02:38;20.92;;;17.58;;
2824;SDS011;1420;51.324;12.344;2022-10-26T06:05:06;23.97;;;21.62;;
2824;SDS011;1420;51.324;12.344;2022-10-26T06:07:33;21.65;;;19.22;;
2824;SDS011;1420;51.324;12.344;2022-10-26T06:10:01;22.92;;;15.83;;
2824;SDS011;1420;51.324;12.344;2022-10-26T06:12:28;26.43;;;23.90;;
2824;SDS011;1420;51.324;12.344;2022-10-26T06:14:55;22.80;;;20.55;;
2824;SDS011;1420;51.324;12.344;2022-10-26T06:22:45;25.30;;;20.55;;
2824;SDS011;1420;51.324;12.344;2022-10-26T06:25:17;24.63;;;14.35;;
2824;SDS011;1420;51.324;12.344;2022-10-26T06:27:55;19.32;;;15.82;;
2824;SDS011;1420;51.324;12.344;2022-10-26T06:30:29;16.92;;;12.82;;
2824;SDS011;1420;51.324;12.344;2022-10-26T06:32:56;17.35;;;10.48;;
2824;SDS011;1420;51.324;12.344;2022-10-26T06:35:28;28.00;;;24.97;;
2824;SDS011;1420;51.324;12.344;2022-10-26T06:37:52;26.28;;;23.66;;
2824;SDS011;1420;51.324;12.344;2022-10-26T06:40:20;24.52;;;21.84;;
2824;SDS011;1420;51.324;12.344;2022-10-26T06:42:47;19.74;;;17.52;;
2824;SDS011;1420;51.324;12.344;2022-10-26T06:45:15;16.75;;;9.83;;
2824;SDS011;1420;51.324;12.344;2022-10-26T06:47:45;15.10;;;7.02;;
2824;SDS011;1420;51.324;12.344;2022-10-26T06:50:16;16.77;;;10.73;;
2824;SDS011;1420;51.324;12.344;2022-10-26T06:52:40;15.26;;;10.04;;
2824;SDS011;1420;51.324;12.344;2022-10-26T06:55:12;17.86;;;12.72;;
2824;SDS011;1420;51.324;12.344;2022-10-26T06:57:41;21.83;;;18.27;;
2824;SDS011;1420;51.324;12.344;2022-10-26T07:00:13;23.28;;;20.73;;
2824;SDS011;1420;51.324;12.344;2022-10-26T07:02:40;27.78;;;25.32;;
2824;SDS011;1420;51.324;12.344;2022-10-26T07:05:07;17.72;;;10.96;;
2824;SDS011;1420;51.324;12.344;2022-10-26T07:07:34;13.62;;;8.52;;
2824;SDS011;1420;51.324;12.344;2022-10-26T07:10:02;14.64;;;11.66;;
2824;SDS011;1420;51.324;12.344;2022-10-26T07:12:29;15.34;;;10.30;;
2824;SDS011;1420;51.324;12.344;2022-10-26T07:14:57;18.46;;;12.86;;
2824;SDS011;1420;51.324;12.344;2022-10-26T07:17:24;14.20;;;9.32;;
2824;SDS011;1420;51.324;12.344;2022-10-26T07:19:52;16.98;;;11.00;;
2824;SDS011;1420;51.324;12.344;2022-10-26T07:22:20;14.32;;;4.02;;
2824;SDS011;1420;51.324;12.344;2022-10-26T07:24:48;12.06;;;4.36;;
2824;SDS011;1420;51.324;12.344;2022-10-26T07:27:16;9.06;;;2.02;;
2824;SDS011;1420;51.324;12.344;2022-10-26T07:29:43;11.70;;;1.96;;
2824;SDS011;1420;51.324;12.344;2022-10-26T07:32:10;8.72;;;2.08;;
2824;SDS011;1420;51.324;12.344;2022-10-26T07:34:37;9.90;;;2.00;;
2824;SDS011;1420;51.324;12.344;2022-10-26T07:37:05;8.88;;;1.68;;
2824;SDS011;1420;51.324;12.344;2022-10-26T07:39:32;10.06;;;1.62;;
2824;SDS011;1420;51.324;12.344;2022-10-26T07:41:59;10.12;;;1.96;;
2824;SDS011;1420;51.324;12.344;2022-10-26T07:44:26;10.20;;;2.00;;
2824;SDS011;1420;51.324;12.344;2022-10-26T07:46:53;9.14;;;1.34;;
2824;SDS011;1420;51.324;12.344;2022-10-26T07:49:21;11.38;;;2.38;;
2824;SDS011;1420;51.324;12.344;2022-10-26T07:51:48;10.60;;;2.02;;
2824;SDS011;1420;51.324;12.344;2022-10-26T07:54:15;10.94;;;1.64;;
2824;SDS011;1420;51.324;12.344;2022-10-26T07:56:42;10.08;;;1.84;;
2824;SDS011;1420;51.324;12.344;2022-10-26T07:59:10;10.70;;;2.06;;
2824;SDS011;1420;51.324;12.344;2022-10-26T08:01:37;9.88;;;1.98;;
2824;SDS011;1420;51.324;12.344;2022-10-26T08:04:04;9.94;;;2.02;;
2824;SDS011;1420;51.324;12.344;2022-10-26T08:06:31;10.40;;;2.00;;
2824;SDS011;1420;51.324;12.344;2022-10-26T08:08:58;9.38;;;2.00;;
2824;SDS011;1420;51.324;12.344;2022-10-26T08:11:25;9.00;;;2.34;;
2824;SDS011;1420;51.324;12.344;2022-10-26T08:13:53;8.56;;;2.38;;
2824;SDS011;1420;51.324;12.344;2022-10-26T08:16:20;10.38;;;2.76;;
2824;SDS011;1420;51.324;12.344;2022-10-26T08:18:47;8.74;;;2.14;;
2824;SDS011;1420;51.324;12.344;2022-10-26T08:21:14;9.50;;;2.18;;
2824;SDS011;1420;51.324;12.344;2022-10-26T08:23:41;12.48;;;1.82;;
2824;SDS011;1420;51.324;12.344;2022-10-26T08:26:09;9.68;;;1.66;;
2824;SDS011;1420;51.324;12.344;2022-10-26T08:28:36;9.54;;;1.90;;
2824;SDS011;1420;51.324;12.344;2022-10-26T08:31:03;12.86;;;1.92;;
2824;SDS011;1420;51.324;12.344;2022-10-26T08:33:30;10.68;;;1.86;;
2824;SDS011;1420;51.324;12.344;2022-10-26T08:35:58;10.92;;;2.08;;
2824;SDS011;1420;51.324;12.344;2022-10-26T08:38:25;9.92;;;2.00;;
2824;SDS011;1420;51.324;12.344;2022-10-26T08:40:52;11.48;;;2.30;;
2824;SDS011;1420;51.324;12.344;2022-10-26T08:43:24;10.70;;;1.70;;
2824;SDS011;1420;51.324;12.344;2022-10-26T08:45:56;13.44;;;2.54;;
2824;SDS011;1420;51.324;12.344;2022-10-26T08:48:22;11.44;;;2.32;;
2824;SDS011;1420;51.324;12.344;2022-10-26T08:50:51;11.22;;;2.12;;
2824;SDS011;1420;51.324;12.344;2022-10-26T08:53:26;11.22;;;2.18;;
2824;SDS011;1420;51.324;12.344;2022-10-26T08:55:54;10.84;;;2.20;;
2824;SDS011;1420;51.324;12.344;2022-10-26T08:58:21;9.34;;;2.00;;
2824;SDS011;1420;51.324;12.344;2022-10-26T09:00:47;9.58;;;2.34;;
2824;SDS011;1420;51.324;12.344;2022-10-26T09:03:15;9.38;;;1.88;;
2824;SDS011;1420;51.324;12.344;2022-10-26T09:05:48;9.82;;;2.00;;
2824;SDS011;1420;51.324;12.344;2022-10-26T09:08:30;9.16;;;1.96;;
2824;SDS011;1420;51.324;12.344;2022-10-26T09:11:05;10.70;;;2.28;;
2824;SDS011;1420;51.324;12.344;2022-10-26T09:13:35;10.94;;;2.34;;
2824;SDS011;1420;51.324;12.344;2022-10-26T09:16:06;11.70;;;2.00;;
2824;SDS011;1420;51.324;12.344;2022-10-26T09:24:27;11.06;;;1.94;;
2824;SDS011;1420;51.324;12.344;2022-10-26T09:26:52;12.14;;;2.14;;
2824;SDS011;1420;51.324;12.344;2022-10-26T09:29:21;10.40;;;2.00;;
2824;SDS011;1420;51.324;12.344;2022-10-26T09:31:58;10.48;;;1.90;;
2824;SDS011;1420;51.324;12.344;2022-10-26T09:36:59;11.38;;;1.84;;
2824;SDS011;1420;51.324;12.344;2022-10-26T09:39:45;12.26;;;2.24;;
2824;SDS011;1420;51.324;12.344;2022-10-26T09:42:14;11.74;;;1.58;;
2824;SDS011;1420;51.324;12.344;2022-10-26T09:44:41;12.32;;;2.32;;
2824;SDS011;1420;51.324;12.344;2022-10-26T09:49:52;10.54;;;1.58;;
2824;SDS011;1420;51.324;12.344;2022-10-26T09:52:18;13.12;;;2.12;;
2824;SDS011;1420;51.324;12.344;2022-10-26T09:54:46;13.62;;;2.72;;
2824;SDS011;1420;51.324;12.344;2022-10-26T09:57:15;11.92;;;2.06;;
2824;SDS011;1420;51.324;12.344;2022-10-26T09:59:42;13.10;;;2.00;;
2824;SDS011;1420;51.324;12.344;2022-10-26T10:02:44;13.54;;;2.02;;
2824;SDS011;1420;51.324;12.344;2022-10-26T10:05:00;12.32;;;2.82;;
2824;SDS011;1420;51.324;12.344;2022-10-26T10:07:28;11.38;;;1.78;;
2824;SDS011;1420;51.324;12.344;2022-10-26T10:10:06;13.00;;;1.94;;
2824;SDS011;1420;51.324;12.344;2022-10-26T10:12:34;13.00;;;2.40;;
2824;SDS011;1420;51.324;12.344;2022-10-26T10:15:01;13.40;;;1.58;;
2824;SDS011;1420;51.324;12.344;2022-10-26T10:17:28;11.78;;;1.76;;
2824;SDS011;1420;51.324;12.344;2022-10-26T10:20:05;13.96;;;2.14;;
2824;SDS011;1420;51.324;12.344;2022-10-26T10:22:24;11.58;;;2.88;;
2824;SDS011;1420;51.324;12.344;2022-10-26T10:24:54;12.12;;;2.50;;
2824;SDS011;1420;51.324;12.344;2022-10-26T10:27:20;14.70;;;2.92;;
2824;SDS011;1420;51.324;12.344;2022-10-26T10:29:51;11.18;;;3.12;;
2824;SDS011;1420;51.324;12.344;2022-10-26T10:32:19;13.56;;;4.12;;
2824;SDS011;1420;51.324;12.344;2022-10-26T10:34:47;11.74;;;2.60;;
2824;SDS011;1420;51.324;12.344;2022-10-26T10:37:21;10.54;;;2.48;;
2824;SDS011;1420;51.324;12.344;2022-10-26T10:39:47;12.86;;;2.90;;
2824;SDS011;1420;51.324;12.344;2022-10-26T10:42:19;14.46;;;3.92;;
2824;SDS011;1420;51.324;12.344;2022-10-26T10:44:49;10.70;;;2.88;;
2824;SDS011;1420;51.324;12.344;2022-10-26T10:47:20;11.26;;;2.20;;
2824;SDS011;1420;51.324;12.344;2022-10-26T10:49:50;15.42;;;5.78;;
2824;SDS011;1420;51.324;12.344;2022-10-26T10:52:33;11.66;;;3.72;;
2824;SDS011;1420;51.324;12.344;2022-10-26T10:55:03;10.70;;;3.42;;
2824;SDS011;1420;51.324;12.344;2022-10-26T11:00:11;10.90;;;3.18;;
2824;SDS011;1420;51.324;12.344;2022-10-26T11:02:43;11.68;;;4.02;;
2824;SDS011;1420;51.324;12.344;2022-10-26T11:05:22;9.94;;;1.88;;
2824;SDS011;1420;51.324;12.344;2022-10-26T11:08:06;10.26;;;1.92;;
2824;SDS011;1420;51.324;12.344;2022-10-26T11:10:35;10.46;;;2.24;;
2824;SDS011;1420;51.324;12.344;2022-10-26T11:13:06;11.58;;;2.12;;
2824;SDS011;1420;51.324;12.344;2022-10-26T11:15:32;9.20;;;2.14;;
2824;SDS011;1420;51.324;12.344;2022-10-26T11:18:03;10.48;;;1.98;;
2824;SDS011;1420;51.324;12.344;2022-10-26T11:20:28;9.08;;;1.58;;
2824;SDS011;1420;51.324;12.344;2022-10-26T11:23:01;10.60;;;1.96;;
2824;SDS011;1420;51.324;12.344;2022-10-26T11:25:43;11.38;;;2.60;;
2824;SDS011;1420;51.324;12.344;2022-10-26T11:28:11;10.56;;;2.08;;
2824;SDS011;1420;51.324;12.344;2022-10-26T11:30:45;9.96;;;1.74;;
2824;SDS011;1420;51.324;12.344;2022-10-26T11:33:11;10.56;;;2.40;;
2824;SDS011;1420;51.324;12.344;2022-10-26T11:35:43;10.66;;;2.54;;
2824;SDS011;1420;51.324;12.344;2022-10-26T11:38:52;11.26;;;2.64;;
2824;SDS011;1420;51.324;12.344;2022-10-26T11:41:09;8.96;;;1.66;;
2824;SDS011;1420;51.324;12.344;2022-10-26T11:43:37;9.72;;;1.30;;
2824;SDS011;1420;51.324;12.344;2022-10-26T11:46:12;9.64;;;1.48;;
2824;SDS011;1420;51.324;12.344;2022-10-26T11:48:42;9.40;;;1.60;;
2824;SDS011;1420;51.324;12.344;2022-10-26T11:54:12;10.58;;;1.90;;
2824;SDS011;1420;51.324;12.344;2022-10-26T11:56:43;10.34;;;2.68;;
2824;SDS011;1420;51.324;12.344;2022-10-26T11:59:13;9.30;;;1.86;;
2824;SDS011;1420;51.324;12.344;2022-10-26T12:01:36;8.90;;;1.50;;
2824;SDS011;1420;51.324;12.344;2022-10-26T12:04:03;8.36;;;1.20;;
2824;SDS011;1420;51.324;12.344;2022-10-26T12:06:31;10.10;;;2.90;;
2824;SDS011;1420;51.324;12.344;2022-10-26T12:11:37;8.82;;;1.86;;
2824;SDS011;1420;51.324;12.344;2022-10-26T12:14:11;9.42;;;2.50;;
2824;SDS011;1420;51.324;12.344;2022-10-26T12:17:12;11.42;;;1.88;;
2824;SDS011;1420;51.324;12.344;2022-10-26T12:19:34;10.46;;;1.60;;
2824;SDS011;1420;51.324;12.344;2022-10-26T12:22:16;9.90;;;2.32;;
2824;SDS011;1420;51.324;12.344;2022-10-26T12:24:44;11.94;;;2.50;;
2824;SDS011;1420;51.324;12.344;2022-10-26T12:27:30;10.06;;;2.70;;
2824;SDS011;1420;51.324;12.344;2022-10-26T12:30:30;12.70;;;2.16;;
2824;SDS011;1420;51.324;12.344;2022-10-26T12:32:57;9.04;;;2.02;;
2824;SDS011;1420;51.324;12.344;2022-10-26T12:35:33;11.06;;;3.86;;
2824;SDS011;1420;51.324;12.344;2022-10-26T12:38:25;10.34;;;2.16;;
2824;SDS011;1420;51.324;12.344;2022-10-26T12:40:37;12.76;;;2.50;;
2824;SDS011;1420;51.324;12.344;2022-10-26T12:48:40;12.36;;;3.26;;
2824;SDS011;1420;51.324;12.344;2022-10-26T12:54:07;8.00;;;1.54;;
2824;SDS011;1420;51.324;12.344;2022-10-26T12:56:55;9.58;;;2.38;;
2824;SDS011;1420;51.324;12.344;2022-10-26T12:59:25;8.54;;;1.90;;
2824;SDS011;1420;51.324;12.344;2022-10-26T13:01:57;9.20;;;1.70;;
2824;SDS011;1420;51.324;12.344;2022-10-26T13:04:35;9.12;;;2.66;;
2824;SDS011;1420;51.324;12.344;2022-10-26T13:07:09;9.18;;;3.18;;
2824;SDS011;1420;51.324;12.344;2022-10-26T13:09:37;10.30;;;2.88;;
2824;SDS011;1420;51.324;12.344;2022-10-26T13:12:04;10.54;;;2.32;;
2824;SDS011;1420;51.324;12.344;2022-10-26T13:17:05;10.70;;;3.36;;
2824;SDS011;1420;51.324;12.344;2022-10-26T13:19:38;10.32;;;1.82;;
2824;SDS011;1420;51.324;12.344;2022-10-26T13:22:13;10.46;;;2.04;;
2824;SDS011;1420;51.324;12.344;2022-10-26T13:24:46;9.92;;;3.04;;
2824;SDS011;1420;51.324;12.344;2022-10-26T13:27:38;9.70;;;3.22;;
2824;SDS011;1420;51.324;12.344;2022-10-26T13:32:48;9.32;;;2.62;;
2824;SDS011;1420;51.324;12.344;2022-10-26T13:35:14;9.64;;;2.10;;
2824;SDS011;1420;51.324;12.344;2022-10-26T13:37:43;9.32;;;1.60;;
2824;SDS011;1420;51.324;12.344;2022-10-26T13:40:10;10.52;;;2.94;;
2824;SDS011;1420;51.324;12.344;2022-10-26T13:42:41;15.84;;;14.10;;
2824;SDS011;1420;51.324;12.344;2022-10-26T13:45:06;10.12;;;3.16;;
2824;SDS011;1420;51.324;12.344;2022-10-26T13:50:07;9.70;;;2.46;;
2824;SDS011;1420;51.324;12.344;2022-10-26T13:52:36;11.60;;;2.70;;
2824;SDS011;1420;51.324;12.344;2022-10-26T13:55:06;10.68;;;3.18;;
2824;SDS011;1420;51.324;12.344;2022-10-26T13:58:19;11.86;;;2.86;;
2824;SDS011;1420;51.324;12.344;2022-10-26T14:00:31;10.48;;;2.26;;
2824;SDS011;1420;51.324;12.344;2022-10-26T14:03:10;9.34;;;2.30;;
2824;SDS011;1420;51.324;12.344;2022-10-26T14:05:27;11.18;;;3.28;;
2824;SDS011;1420;51.324;12.344;2022-10-26T14:07:56;11.34;;;4.70;;
2824;SDS011;1420;51.324;12.344;2022-10-26T14:10:26;9.78;;;3.88;;
2824;SDS011;1420;51.324;12.344;2022-10-26T14:12:52;11.62;;;3.12;;
2824;SDS011;1420;51.324;12.344;2022-10-26T14:15:24;10.20;;;2.82;;
2824;SDS011;1420;51.324;12.344;2022-10-26T14:17:51;9.78;;;2.28;;
2824;SDS011;1420;51.324;12.344;2022-10-26T14:20:19;11.68;;;2.78;;
2824;SDS011;1420;51.324;12.344;2022-10-26T14:22:46;10.16;;;3.50;;
2824;SDS011;1420;51.324;12.344;2022-10-26T14:25:17;10.54;;;3.88;;
2824;SDS011;1420;51.324;12.344;2022-10-26T14:27:44;10.02;;;3.40;;
2824;SDS011;1420;51.324;12.344;2022-10-26T14:32:47;10.52;;;3.84;;
2824;SDS011;1420;51.324;12.344;2022-10-26T14:35:15;10.32;;;3.12;;
2824;SDS011;1420;51.324;12.344;2022-10-26T14:37:43;10.36;;;2.84;;
2824;SDS011;1420;51.324;12.344;2022-10-26T14:40:13;10.32;;;2.88;;
2824;SDS011;1420;51.324;12.344;2022-10-26T14:42:40;11.68;;;5.54;;
2824;SDS011;1420;51.324;12.344;2022-10-26T14:47:46;13.34;;;4.82;;
2824;SDS011;1420;51.324;12.344;2022-10-26T14:50:16;11.48;;;3.74;;
2824;SDS011;1420;51.324;12.344;2022-10-26T14:52:47;12.46;;;4.88;;
2824;SDS011;1420;51.324;12.344;2022-10-26T14:55:12;11.08;;;3.24;;
2824;SDS011;1420;51.324;12.344;2022-10-26T14:57:39;11.90;;;6.16;;
2824;SDS011;1420;51.324;12.344;2022-10-26T15:00:18;12.22;;;6.06;;
2824;SDS011;1420;51.324;12.344;2022-10-26T15:02:49;14.04;;;6.04;;
2824;SDS011;1420;51.324;12.344;2022-10-26T15:05:25;13.10;;;6.30;;
2824;SDS011;1420;51.324;12.344;2022-10-26T15:07:52;12.36;;;6.88;;
2824;SDS011;1420;51.324;12.344;2022-10-26T15:12:57;12.84;;;5.36;;
2824;SDS011;1420;51.324;12.344;2022-10-26T15:15:25;13.78;;;4.70;;
2824;SDS011;1420;51.324;12.344;2022-10-26T15:17:52;12.34;;;6.26;;
2824;SDS011;1420;51.324;12.344;2022-10-26T15:20:21;13.90;;;5.96;;
2824;SDS011;1420;51.324;12.344;2022-10-26T15:22:50;11.82;;;6.76;;
2824;SDS011;1420;51.324;12.344;2022-10-26T15:25:18;13.88;;;8.12;;
2824;SDS011;1420;51.324;12.344;2022-10-26T15:27:46;14.46;;;5.60;;
2824;SDS011;1420;51.324;12.344;2022-10-26T15:30:21;14.28;;;9.36;;
2824;SDS011;1420;51.324;12.344;2022-10-26T15:32:49;14.52;;;7.04;;
2824;SDS011;1420;51.324;12.344;2022-10-26T15:35:25;13.36;;;5.30;;
2824;SDS011;1420;51.324;12.344;2022-10-26T15:37:53;11.80;;;6.62;;
2824;SDS011;1420;51.324;12.344;2022-10-26T15:40:20;13.46;;;6.60;;
2824;SDS011;1420;51.324;12.344;2022-10-26T15:42:49;15.48;;;8.10;;
2824;SDS011;1420;51.324;12.344;2022-10-26T15:45:16;14.64;;;7.44;;
2824;SDS011;1420;51.324;12.344;2022-10-26T15:47:43;16.84;;;12.38;;
2824;SDS011;1420;51.324;12.344;2022-10-26T15:50:12;13.98;;;8.46;;
2824;SDS011;1420;51.324;12.344;2022-10-26T15:52:39;11.04;;;5.10;;